createdAt,value
2022-11-20T00:00:58.685Z,96105.72
2022-11-20T00:03:30.502Z,96101.41
2022-11-20T00:06:02.214Z,96111.34
2022-11-20T00:08:30.410Z,96100.88
2022-11-20T00:10:58.408Z,96100.66
2022-11-20T00:13:26.341Z,96098.25
2022-11-20T00:15:59.534Z,96101.16
2022-11-20T00:18:29.410Z,96102.00
2022-11-20T00:21:03.143Z,96106.19
2022-11-20T00:23:31.672Z,96111.34
2022-11-20T00:26:04.466Z,96109.69
2022-11-20T00:28:32.797Z,96109.47
2022-11-20T00:31:05.203Z,96097.44
2022-11-20T00:33:35.145Z,96102.75
2022-11-20T00:36:04.792Z,96095.72
2022-11-20T00:38:32.890Z,96101.72
2022-11-20T00:41:02.310Z,96108.00
2022-11-20T00:43:30.763Z,96109.69
2022-11-20T00:45:59.902Z,96110.00
2022-11-20T00:48:28.879Z,96106.31
2022-11-20T00:50:59.254Z,96106.50
2022-11-20T00:53:27.936Z,96103.13
2022-11-20T00:55:57.416Z,96108.59
2022-11-20T00:58:26.633Z,96111.94
2022-11-20T01:00:54.677Z,96119.28
2022-11-20T01:03:26.781Z,96110.59
2022-11-20T01:05:54.981Z,96110.97
2022-11-20T01:08:24.382Z,96117.25
2022-11-20T01:10:52.258Z,96121.75
2022-11-20T01:13:38.178Z,96116.88
2022-11-20T01:16:07.902Z,96113.72
2022-11-20T01:18:36.414Z,96115.81
2022-11-20T01:21:05.666Z,96115.25
2022-11-20T01:23:36.069Z,96119.97
2022-11-20T01:26:05.254Z,96119.13
2022-11-20T01:28:33.456Z,96125.66
2022-11-20T01:31:01.914Z,96133.06
2022-11-20T01:33:29.944Z,96126.97
2022-11-20T01:36:06.331Z,96123.72
2022-11-20T01:38:35.622Z,96115.34
2022-11-20T01:41:04.534Z,96112.16
2022-11-20T01:43:32.262Z,96110.56
2022-11-20T01:46:21.455Z,96118.59
2022-11-20T01:48:55.453Z,96113.47
2022-11-20T01:51:31.256Z,96111.88
2022-11-20T01:54:03.490Z,96118.25
2022-11-20T01:56:35.578Z,96114.69
2022-11-20T01:59:06.368Z,96104.91
2022-11-20T02:01:34.752Z,96108.53
2022-11-20T02:04:03.575Z,96111.50
2022-11-20T02:06:37.274Z,96110.56
2022-11-20T02:09:10.147Z,96118.41
2022-11-20T02:11:38.073Z,96112.16
2022-11-20T02:14:05.325Z,96112.06
2022-11-20T02:16:37.294Z,96111.41
2022-11-20T02:19:09.558Z,96113.09
2022-11-20T02:21:41.701Z,96105.25
2022-11-20T02:24:16.262Z,96103.47
2022-11-20T02:26:51.706Z,96109.44
2022-11-20T02:29:25.347Z,96097.41
2022-11-20T02:31:56.020Z,96100.28
2022-11-20T02:34:24.061Z,96100.28
2022-11-20T02:36:54.212Z,96105.41
2022-11-20T02:39:26.892Z,96108.94
2022-11-20T02:41:55.882Z,96117.47
2022-11-20T02:44:23.835Z,96115.50
2022-11-20T02:46:51.753Z,96123.03
2022-11-20T02:49:20.134Z,96123.03
2022-11-20T02:51:48.306Z,96122.94
2022-11-20T02:54:16.312Z,96123.25
2022-11-20T02:56:45.634Z,96117.16
2022-11-20T02:59:13.603Z,96125.56
2022-11-20T03:01:41.655Z,96120.75
2022-11-20T03:04:10.426Z,96119.78
2022-11-20T03:06:38.500Z,96124.28
2022-11-20T03:09:06.506Z,96129.50
2022-11-20T03:11:34.522Z,96127.63
2022-11-20T03:14:05.772Z,96120.75
2022-11-20T03:16:34.415Z,96112.97
2022-11-20T03:19:02.958Z,96118.69
2022-11-20T03:21:30.943Z,96124.09
2022-11-20T03:23:58.830Z,96118.59
2022-11-20T03:26:28.334Z,96117.94
2022-11-20T03:28:58.017Z,96115.97
2022-11-20T03:31:28.660Z,96108.41
2022-11-20T03:33:58.126Z,96109.34
2022-11-20T03:36:26.203Z,96109.44
2022-11-20T03:38:55.837Z,96113.75
2022-11-20T03:41:25.838Z,96111.50
2022-11-20T03:43:55.321Z,96109.19
2022-11-20T03:46:23.493Z,96108.44
2022-11-20T03:48:53.272Z,96106.75
2022-11-20T03:51:22.923Z,96108.81
2022-11-20T03:53:52.870Z,96103.59
2022-11-20T03:56:25.706Z,96114.78
2022-11-20T03:58:53.641Z,96112.16
2022-11-20T04:01:24.056Z,96108.53
2022-11-20T04:03:54.415Z,96107.78
2022-11-20T04:06:24.503Z,96104.44
2022-11-20T04:08:54.126Z,96111.44
2022-11-20T04:11:24.472Z,96107.88
2022-11-20T04:13:54.905Z,96103.41
2022-11-20T04:16:23.910Z,96103.13
2022-11-20T04:18:55.935Z,96103.13
2022-11-20T04:21:24.920Z,96096.75
2022-11-20T04:23:53.763Z,96092.44
2022-11-20T04:26:22.748Z,96091.34
2022-11-20T04:28:50.770Z,96093.28
2022-11-20T04:31:20.912Z,96095.44
2022-11-20T04:33:49.003Z,96095.72
2022-11-20T04:36:21.820Z,96097.41
2022-11-20T04:38:56.861Z,96096.28
2022-11-20T04:41:28.050Z,96092.06
2022-11-20T04:44:02.755Z,96096.16
2022-11-20T04:46:32.569Z,96097.03
2022-11-20T04:49:01.173Z,96096.00
2022-11-20T04:51:30.847Z,96089.91
2022-11-20T04:53:58.821Z,96100.38
2022-11-20T04:56:26.970Z,96093.81
2022-11-20T04:58:54.997Z,96089.13
2022-11-20T05:01:25.507Z,96088.31
2022-11-20T05:03:54.212Z,96085.78
2022-11-20T05:06:24.530Z,96084.81
2022-11-20T05:08:54.239Z,96082.56
2022-11-20T05:11:23.577Z,96080.78
2022-11-20T05:13:52.932Z,96090.00
2022-11-20T05:16:23.191Z,96087.97
2022-11-20T05:18:52.353Z,96078.34
2022-11-20T05:21:20.511Z,96074.75
2022-11-20T05:23:48.949Z,96076.91
2022-11-20T05:26:20.145Z,96082.31
2022-11-20T05:28:48.302Z,96082.03
2022-11-20T05:31:22.026Z,96077.53
2022-11-20T05:33:53.807Z,96083.81
2022-11-20T05:36:21.795Z,96081.28
2022-11-20T05:38:51.062Z,96090.91
2022-11-20T05:41:22.242Z,96081.41
2022-11-20T05:43:51.499Z,96077.53
2022-11-20T05:46:27.682Z,96077.81
2022-11-20T05:48:57.483Z,96087.06
2022-11-20T05:51:26.070Z,96079.41
2022-11-20T05:53:53.963Z,96082.03
2022-11-20T05:56:24.292Z,96081.94
2022-11-20T05:58:52.282Z,96079.53
2022-11-20T06:01:22.533Z,96081.19
2022-11-20T06:03:51.835Z,96083.06
2022-11-20T06:06:21.144Z,96081.28
2022-11-20T06:08:49.368Z,96087.16
2022-11-20T06:11:18.016Z,96085.47
2022-11-20T06:13:48.026Z,96079.53
2022-11-20T06:16:19.495Z,96082.13
2022-11-20T06:18:47.611Z,96080.97
2022-11-20T06:21:17.999Z,96079.09
2022-11-20T06:23:46.585Z,96083.84
2022-11-20T06:26:16.568Z,96085.81
2022-11-20T06:28:44.813Z,96078.81
2022-11-20T06:31:15.539Z,96078.81
2022-11-20T06:33:44.392Z,96080.38
2022-11-20T06:36:13.931Z,96081.13
2022-11-20T06:38:42.672Z,96080.28
2022-11-20T06:41:13.842Z,96087.84
2022-11-20T06:43:42.032Z,96077.59
2022-11-20T06:46:11.821Z,96087.84
2022-11-20T06:48:41.782Z,96088.78
2022-11-20T06:51:10.278Z,96087.84
2022-11-20T06:53:39.487Z,96094.75
2022-11-20T06:56:08.232Z,96096.44
2022-11-20T06:58:37.508Z,96090.56
2022-11-20T07:01:07.553Z,96096.44
2022-11-20T07:03:35.749Z,96102.31
2022-11-20T07:06:06.273Z,96099.06
2022-11-20T07:08:34.805Z,96104.94
2022-11-20T07:11:05.070Z,96116.06
2022-11-20T07:13:33.333Z,96106.72
2022-11-20T07:16:03.035Z,96103.25
2022-11-20T07:18:31.542Z,96096.44
2022-11-20T07:21:02.546Z,96104.09
2022-11-20T07:23:32.344Z,96105.03
2022-11-20T07:26:05.034Z,96108.38
2022-11-20T07:28:33.441Z,96098.75
2022-11-20T07:31:02.287Z,96105.66
2022-11-20T07:33:31.517Z,96108.06
2022-11-20T07:36:00.980Z,96107.91
2022-11-20T07:38:29.442Z,96109.69
2022-11-20T07:41:02.474Z,96111.56
2022-11-20T07:43:30.973Z,96105.28
2022-11-20T07:45:59.832Z,96116.28
2022-11-20T07:48:28.336Z,96101.19
2022-11-20T07:50:56.905Z,96102.06
2022-11-20T07:53:26.000Z,96103.63
2022-11-20T07:55:54.527Z,96113.97
2022-11-20T07:58:24.223Z,96117.25
2022-11-20T08:00:52.664Z,96119.78
2022-11-20T08:03:24.909Z,96116.88
2022-11-20T08:05:53.854Z,96124.28
2022-11-20T08:08:22.193Z,96126.31
2022-11-20T08:10:50.289Z,96131.22
2022-11-20T08:13:35.842Z,96128.63
2022-11-20T08:16:05.740Z,96137.00
2022-11-20T08:18:33.800Z,96135.31
2022-11-20T08:21:05.696Z,96137.00
2022-11-20T08:23:34.191Z,96137.84
2022-11-20T08:26:02.199Z,96141.81
2022-11-20T08:28:30.290Z,96145.91
2022-11-20T08:31:01.034Z,96147.50
2022-11-20T08:33:30.760Z,96143.41
2022-11-20T08:36:01.471Z,96149.19
2022-11-20T08:38:29.481Z,96142.69
2022-11-20T08:41:18.855Z,96154.03
2022-11-20T08:43:46.878Z,96153.28
2022-11-20T08:46:15.056Z,96150.78
2022-11-20T08:48:45.022Z,96156.97
2022-11-20T08:51:14.312Z,96152.13
2022-11-20T08:53:42.894Z,96146.06
2022-11-20T08:56:12.037Z,96157.81
2022-11-20T08:59:09.801Z,96156.97
2022-11-20T09:01:28.495Z,96163.06
2022-11-20T09:03:58.955Z,96164.84
2022-11-20T09:06:27.357Z,96159.47
2022-11-20T09:08:55.372Z,96162.75
2022-11-20T09:11:23.462Z,96167.88
2022-11-20T09:13:51.714Z,96166.94
2022-11-20T09:16:20.239Z,96172.91
2022-11-20T09:18:54.103Z,96168.81
2022-11-20T09:21:38.492Z,96170.31
2022-11-20T09:24:07.590Z,96175.63
2022-11-20T09:26:35.533Z,96173.97
2022-11-20T09:29:03.608Z,96176.69
2022-11-20T09:31:31.547Z,96186.03
2022-11-20T09:33:59.637Z,96186.13
2022-11-20T09:36:27.767Z,96184.25
2022-11-20T09:38:57.327Z,96192.22
2022-11-20T09:41:44.858Z,96183.81
2022-11-20T09:44:28.624Z,96184.25
2022-11-20T09:47:03.780Z,96178.34
2022-11-20T09:49:42.732Z,96182.47
2022-11-20T09:52:24.376Z,96193.91
2022-11-20T09:54:56.433Z,96192.22
2022-11-20T09:57:31.215Z,96190.53
2022-11-20T10:00:03.467Z,96188.00
2022-11-20T10:02:44.861Z,96186.13
2022-11-20T10:05:20.255Z,96186.66
2022-11-20T10:07:56.299Z,96183.41
2022-11-20T10:10:38.589Z,96192.44
2022-11-20T10:13:22.514Z,96191.16
2022-11-20T10:16:03.474Z,96191.06
2022-11-20T10:18:46.264Z,96193.69
2022-11-20T10:21:25.532Z,96192.72
2022-11-20T10:24:11.840Z,96192.53
2022-11-20T10:26:50.277Z,96187.91
2022-11-20T10:29:21.014Z,96191.50
2022-11-20T10:31:53.242Z,96182.06
2022-11-20T10:34:26.364Z,96191.91
2022-11-20T10:36:58.155Z,96193.28
2022-11-20T10:39:33.457Z,96192.09
2022-11-20T10:42:03.058Z,96186.16
2022-11-20T10:44:55.120Z,96187.16
2022-11-20T10:47:24.729Z,96182.16
2022-11-20T10:49:55.239Z,96182.78
2022-11-20T10:52:31.356Z,96177.53
2022-11-20T10:55:08.338Z,96176.16
2022-11-20T10:57:54.134Z,96175.56
2022-11-20T11:00:22.172Z,96177.00
2022-11-20T11:02:51.830Z,96180.38
2022-11-20T11:05:38.321Z,96181.09
2022-11-20T11:08:12.819Z,96179.44
2022-11-20T11:10:48.257Z,96183.41
2022-11-20T11:13:25.646Z,96177.84
2022-11-20T11:15:54.044Z,96173.56
2022-11-20T11:18:26.699Z,96153.25
2022-11-20T11:20:56.318Z,96144.53
2022-11-20T11:23:36.095Z,96146.84
2022-11-20T11:26:06.071Z,96139.47
2022-11-20T11:28:36.893Z,96131.94
2022-11-20T11:31:04.785Z,96131.59
2022-11-20T11:33:35.575Z,96132.13
2022-11-20T11:36:07.065Z,96131.69
2022-11-20T11:38:38.869Z,96126.19
2022-11-20T11:41:09.536Z,96124.31
2022-11-20T11:43:57.468Z,96115.25
2022-11-20T11:46:32.786Z,96112.94
2022-11-20T11:49:02.766Z,96112.59
2022-11-20T11:51:37.477Z,96115.22
2022-11-20T11:54:15.903Z,96102.47
2022-11-20T11:56:45.060Z,96102.13
2022-11-20T11:59:25.707Z,96105.38
2022-11-20T12:01:57.748Z,96103.47
2022-11-20T12:04:42.456Z,96096.19
2022-11-20T12:07:44.346Z,96092.72
2022-11-20T12:10:05.003Z,96091.41
2022-11-20T12:12:39.138Z,96079.09
2022-11-20T12:15:13.828Z,96087.81
2022-11-20T12:17:42.161Z,96087.81
2022-11-20T12:20:16.094Z,96081.72
2022-11-20T12:22:53.836Z,96080.75
2022-11-20T12:25:26.469Z,96077.19
2022-11-20T12:28:12.820Z,96077.31
2022-11-20T12:30:51.251Z,96086.97
2022-11-20T12:33:40.444Z,96075.00
2022-11-20T12:36:18.131Z,96076.09
2022-11-20T12:39:04.765Z,96076.09
2022-11-20T12:42:06.022Z,96074.19
2022-11-20T12:45:11.594Z,96071.91
2022-11-20T12:47:56.765Z,96087.41
2022-11-20T12:50:32.536Z,96077.75
2022-11-20T12:53:07.438Z,96080.03
2022-11-20T12:55:43.143Z,96069.41
2022-11-20T12:58:18.548Z,96069.91
2022-11-20T13:01:02.882Z,96070.41
2022-11-20T13:03:41.559Z,96073.53
2022-11-20T13:06:16.457Z,96079.41
2022-11-20T13:08:49.548Z,96082.25
2022-11-20T13:11:24.731Z,96079.16
2022-11-20T13:14:13.437Z,96072.34
2022-11-20T13:16:50.027Z,96072.66
2022-11-20T13:19:20.390Z,96071.72
2022-11-20T13:21:51.502Z,96065.38
2022-11-20T13:24:27.239Z,96070.03
2022-11-20T13:27:07.002Z,96071.81
2022-11-20T13:29:36.240Z,96076.22
2022-11-20T13:32:08.267Z,96077.41
2022-11-20T13:34:38.107Z,96067.75
2022-11-20T13:37:06.143Z,96077.66
2022-11-20T13:39:36.114Z,96064.50
2022-11-20T13:42:20.772Z,96070.25
2022-11-20T13:44:52.921Z,96068.69
2022-11-20T13:47:23.975Z,96062.94
2022-11-20T13:49:54.223Z,96051.47
2022-11-20T13:52:44.500Z,96051.13
2022-11-20T13:55:23.453Z,96052.53
2022-11-20T13:58:08.224Z,96053.59
2022-11-20T14:00:52.314Z,96050.16
2022-11-20T14:03:44.013Z,96036.19
2022-11-20T14:06:24.589Z,96045.34
2022-11-20T14:08:52.622Z,96041.50
2022-11-20T14:11:22.629Z,96046.75
2022-11-20T14:13:57.159Z,96049.72
2022-11-20T14:16:26.312Z,96042.78
2022-11-20T14:18:55.695Z,96038.84
2022-11-20T14:21:26.890Z,96048.78
2022-11-20T14:23:56.654Z,96035.03
2022-11-20T14:26:24.704Z,96046.47
2022-11-20T14:28:53.385Z,96048.28
2022-11-20T14:31:26.995Z,96045.03
2022-11-20T14:33:56.029Z,96038.84
2022-11-20T14:36:27.424Z,96038.13
2022-11-20T14:38:56.106Z,96025.72
2022-11-20T14:41:26.116Z,96028.34
2022-11-20T14:43:58.795Z,96018.91
2022-11-20T14:46:28.234Z,96016.38
2022-11-20T14:48:58.097Z,96010.28
2022-11-20T14:51:32.751Z,96006.94
2022-11-20T14:54:13.500Z,96012.41
2022-11-20T14:56:41.869Z,95997.38
2022-11-20T14:59:11.084Z,95995.22
2022-11-20T15:01:39.419Z,95990.16
2022-11-20T15:04:11.196Z,95989.34
2022-11-20T15:06:52.055Z,95986.44
2022-11-20T15:09:20.117Z,95989.28
2022-11-20T15:11:57.793Z,95983.44
2022-11-20T15:14:27.217Z,95988.69
2022-11-20T15:16:55.877Z,95967.91
2022-11-20T15:19:26.008Z,95968.97
2022-11-20T15:21:55.666Z,95975.41
2022-11-20T15:24:23.795Z,95980.75
2022-11-20T15:26:51.917Z,95977.69
2022-11-20T15:29:22.081Z,95968.25
2022-11-20T15:31:51.921Z,95965.75
2022-11-20T15:34:20.235Z,95962.59
2022-11-20T15:36:48.804Z,95966.94
2022-11-20T15:39:18.900Z,95965.56
2022-11-20T15:41:46.886Z,95962.84
2022-11-20T15:44:14.977Z,95960.31
2022-11-20T15:46:47.419Z,95953.09
2022-11-20T15:49:16.822Z,95955.22
2022-11-20T15:51:47.331Z,95949.88
2022-11-20T15:54:21.307Z,95963.00
2022-11-20T15:56:49.845Z,95951.69
2022-11-20T15:59:17.889Z,95948.22
2022-11-20T16:01:46.207Z,95951.78
2022-11-20T16:04:15.370Z,95946.03
2022-11-20T16:06:43.808Z,95952.19
2022-11-20T16:09:11.736Z,95951.16
2022-11-20T16:11:41.199Z,95957.44
2022-11-20T16:14:30.485Z,95949.38
2022-11-20T16:16:58.485Z,95949.72
2022-11-20T16:19:26.456Z,95952.00
2022-11-20T16:21:59.625Z,95939.81
2022-11-20T16:24:30.361Z,95949.47
2022-11-20T16:26:59.778Z,95932.91
2022-11-20T16:29:27.731Z,95927.03
2022-11-20T16:31:55.707Z,95924.53
2022-11-20T16:34:23.888Z,95931.22
2022-11-20T16:36:51.914Z,95938.38
2022-11-20T16:39:23.617Z,95948.56
2022-11-20T16:41:51.977Z,95937.09
2022-11-20T16:44:21.861Z,95934.81
2022-11-20T16:46:50.069Z,95937.19
2022-11-20T16:49:17.947Z,95935.31
2022-11-20T16:51:45.882Z,95933.41
2022-11-20T16:54:20.549Z,95934.47
2022-11-20T16:56:51.096Z,95932.09
2022-11-20T16:59:19.138Z,95929.56
2022-11-20T17:01:48.874Z,95927.91
2022-11-20T17:04:16.914Z,95923.25
2022-11-20T17:06:45.506Z,95924.31
2022-11-20T17:09:13.931Z,95926.72
2022-11-20T17:11:42.112Z,95928.50
2022-11-20T17:14:12.550Z,95929.13
2022-11-20T17:16:40.487Z,95925.88
2022-11-20T17:19:10.138Z,95924.50
2022-11-20T17:21:39.655Z,95922.69
2022-11-20T17:24:09.879Z,95928.81
2022-11-20T17:26:39.080Z,95914.81
2022-11-20T17:29:10.073Z,95914.31
2022-11-20T17:31:39.360Z,95915.06
2022-11-20T17:34:07.458Z,95905.72
2022-11-20T17:36:40.714Z,95907.91
2022-11-20T17:39:12.060Z,95914.13
2022-11-20T17:41:40.041Z,95912.94
2022-11-20T17:44:08.165Z,95904.34
2022-11-20T17:46:36.152Z,95902.44
2022-11-20T17:49:04.916Z,95897.34
2022-11-20T17:51:34.997Z,95906.38
2022-11-20T17:54:08.385Z,95891.22
2022-11-20T17:56:54.616Z,95880.97
2022-11-20T17:59:22.986Z,95878.34
2022-11-20T18:01:51.089Z,95873.09
2022-11-20T18:04:19.175Z,95877.41
2022-11-20T18:06:47.121Z,95869.53
2022-11-20T18:09:16.405Z,95864.06
2022-11-20T18:11:45.447Z,95852.94
2022-11-20T18:14:32.111Z,95853.81
2022-11-20T18:17:02.305Z,95851.88
2022-11-20T18:19:32.916Z,95858.69
2022-11-20T18:22:01.786Z,95850.22
2022-11-20T18:24:31.456Z,95850.81
2022-11-20T18:27:00.857Z,95842.47
2022-11-20T18:29:31.150Z,95847.94
2022-11-20T18:31:59.979Z,95838.06
2022-11-20T18:34:28.234Z,95837.22
2022-11-20T18:36:56.239Z,95828.03
2022-11-20T18:39:24.292Z,95832.09
2022-11-20T18:42:10.933Z,95832.09
2022-11-20T18:44:54.840Z,95822.34
2022-11-20T18:47:25.046Z,95838.06
2022-11-20T18:49:54.856Z,95841.97
2022-11-20T18:52:24.589Z,95833.50
2022-11-20T18:54:53.549Z,95829.69
2022-11-20T18:57:24.894Z,95819.53
2022-11-20T18:59:53.691Z,95831.81
2022-11-20T19:02:22.949Z,95836.78
2022-11-20T19:04:50.869Z,95829.66
2022-11-20T19:07:19.091Z,95829.38
2022-11-20T19:09:50.701Z,95833.78
2022-11-20T19:12:18.719Z,95829.13
2022-11-20T19:14:49.700Z,95825.28
2022-11-20T19:17:18.157Z,95822.78
2022-11-20T19:19:46.645Z,95827.97
2022-11-20T19:22:14.691Z,95817.25
2022-11-20T19:24:42.704Z,95815.44
2022-11-20T19:27:10.693Z,95816.97
2022-11-20T19:29:38.698Z,95807.25
2022-11-20T19:32:08.178Z,95791.28
2022-11-20T19:34:36.164Z,95801.75
2022-11-20T19:37:05.169Z,95801.13
2022-11-20T19:39:33.160Z,95801.03
2022-11-20T19:42:01.084Z,95794.72
2022-11-20T19:44:29.207Z,95795.16
2022-11-20T19:46:58.625Z,95783.84
2022-11-20T19:49:27.914Z,95788.06
2022-11-20T19:51:56.422Z,95793.09
2022-11-20T19:54:24.416Z,95788.06
2022-11-20T19:56:52.399Z,95799.63
2022-11-20T19:59:20.463Z,95794.38
2022-11-20T20:01:48.698Z,95793.31
2022-11-20T20:04:16.652Z,95793.31
2022-11-20T20:06:46.143Z,95786.63
2022-11-20T20:09:14.818Z,95785.78
2022-11-20T20:11:46.829Z,95792.72
2022-11-20T20:14:18.251Z,95795.97
2022-11-20T20:16:46.354Z,95794.47
2022-11-20T20:19:16.298Z,95795.94
2022-11-20T20:21:45.631Z,95791.25
2022-11-20T20:24:13.790Z,95794.59
2022-11-20T20:26:41.957Z,95800.75
2022-11-20T20:29:10.150Z,95800.88
2022-11-20T20:31:38.148Z,95794.28
2022-11-20T20:34:06.704Z,95810.72
2022-11-20T20:36:34.787Z,95812.59
2022-11-20T20:39:04.697Z,95819.53
2022-11-20T20:41:32.784Z,95824.13
2022-11-20T20:44:18.436Z,95824.97
2022-11-20T20:46:46.523Z,95832.72
2022-11-20T20:49:14.614Z,95823.81
2022-11-20T20:51:42.593Z,95824.66
2022-11-20T20:54:12.003Z,95833.78
2022-11-20T20:56:40.058Z,95825.63
2022-11-20T20:59:08.012Z,95834.31
2022-11-20T21:01:36.019Z,95842.78
2022-11-20T21:04:04.119Z,95846.56
2022-11-20T21:06:32.157Z,95842.47
2022-11-20T21:09:00.102Z,95842.78
2022-11-20T21:11:29.466Z,95854.50
2022-11-20T21:13:57.619Z,95860.38
2022-11-20T21:16:26.018Z,95851.56
2022-11-20T21:18:53.976Z,95848.03
2022-11-20T21:21:39.146Z,95840.69
2022-11-20T21:24:08.186Z,95846.75
2022-11-20T21:26:37.501Z,95842.16
2022-11-20T21:29:05.579Z,95845.31
2022-11-20T21:31:33.545Z,95846.66
2022-11-20T21:34:02.415Z,95843.94
2022-11-20T21:36:31.885Z,95845.72
2022-11-20T21:39:00.448Z,95837.34
2022-11-20T21:41:30.247Z,95836.53
2022-11-20T21:46:48.480Z,95824.44
2022-11-20T21:49:18.182Z,95828.34
2022-11-20T21:51:46.089Z,95835.88
2022-11-20T21:54:14.146Z,95844.56
2022-11-20T21:56:42.139Z,95837.44
2022-11-20T21:59:14.457Z,95840.16
2022-11-20T22:01:42.843Z,95858.28
2022-11-20T22:04:14.771Z,95856.50
2022-11-20T22:06:42.851Z,95863.94
2022-11-20T22:09:11.422Z,95860.16
2022-11-20T22:11:39.505Z,95858.28
2022-11-20T22:14:23.813Z,95867.91
2022-11-20T22:16:54.699Z,95864.97
2022-11-20T22:19:24.187Z,95863.41
2022-11-20T22:21:52.802Z,95860.47
2022-11-20T22:24:23.210Z,95863.53
2022-11-20T22:26:51.705Z,95857.31
2022-11-20T22:29:21.881Z,95868.31
2022-11-20T22:31:54.167Z,95876.91
2022-11-20T22:34:22.561Z,95875.03
2022-11-20T22:36:50.856Z,95870.00
2022-11-20T22:39:21.914Z,95869.06
2022-11-20T22:41:50.028Z,95873.97
2022-11-20T22:44:18.145Z,95882.97
2022-11-20T22:46:46.134Z,95874.59
2022-11-20T22:49:15.563Z,95869.81
2022-11-20T22:51:43.600Z,95861.00
2022-11-20T22:54:12.951Z,95872.28
2022-11-20T22:56:41.440Z,95865.31
2022-11-20T22:59:09.843Z,95865.41
2022-11-20T23:01:38.678Z,95864.97
2022-11-20T23:04:08.376Z,95868.63
2022-11-20T23:06:38.026Z,95872.72
2022-11-20T23:09:07.215Z,95866.34
2022-11-20T23:11:36.079Z,95868.63
2022-11-20T23:14:06.140Z,95857.31
2022-11-20T23:16:34.960Z,95866.22
2022-11-20T23:19:05.522Z,95855.66
2022-11-20T23:21:34.767Z,95859.03
2022-11-20T23:24:04.699Z,95860.91
2022-11-20T23:26:34.569Z,95860.13
2022-11-20T23:29:02.895Z,95865.63
2022-11-20T23:31:33.153Z,95859.31
2022-11-20T23:34:01.747Z,95854.72
2022-11-20T23:36:29.743Z,95860.69
2022-11-20T23:38:57.818Z,95853.44
2022-11-20T23:41:27.229Z,95854.50
2022-11-20T23:43:55.698Z,95849.78
2022-11-20T23:46:23.680Z,95855.16
2022-11-20T23:48:51.750Z,95853.66
2022-11-20T23:51:19.927Z,95864.97
2022-11-20T23:53:47.852Z,95868.22
2022-11-20T23:56:15.918Z,95863.91
2022-11-20T23:58:45.372Z,95857.50
